sensor_id;sensor_type;location;lat;lon;timestamp;pressure;altitude;pressure_sealevel;temperature;humidity
25350;BME280;13302;48.796;11.978;2023-11-22T00:02:37;97002.13;;;7.89;38.94
25350;BME280;13302;48.796;11.978;2023-11-22T00:05:24;96999.84;;;7.91;38.69
25350;BME280;13302;48.796;11.978;2023-11-22T00:08:11;96995.00;;;7.88;38.69
25350;BME280;13302;48.796;11.978;2023-11-22T00:10:58;96997.13;;;7.82;38.61
25350;BME280;13302;48.796;11.978;2023-11-22T00:13:46;96997.78;;;7.79;38.95
25350;BME280;13302;48.796;11.978;2023-11-22T00:16:33;97002.19;;;7.71;38.77
25350;BME280;13302;48.796;11.978;2023-11-22T00:19:21;97005.88;;;7.75;38.61
25350;BME280;13302;48.796;11.978;2023-11-22T00:22:11;96999.13;;;7.64;38.85
25350;BME280;13302;48.796;11.978;2023-11-22T00:25:01;97005.28;;;7.70;38.45
25350;BME280;13302;48.796;11.978;2023-11-22T00:27:49;97006.09;;;7.70;38.64
25350;BME280;13302;48.796;11.978;2023-11-22T00:30:36;97012.25;;;7.59;38.92
25350;BME280;13302;48.796;11.978;2023-11-22T00:33:24;97015.97;;;7.63;38.83
25350;BME280;13302;48.796;11.978;2023-11-22T00:36:11;97009.81;;;7.66;38.47
25350;BME280;13302;48.796;11.978;2023-11-22T00:38:58;97013.19;;;7.63;38.95
25350;BME280;13302;48.796;11.978;2023-11-22T00:41:45;97014.69;;;7.60;39.24
25350;BME280;13302;48.796;11.978;2023-11-22T00:44:32;97021.16;;;7.64;38.78
25350;BME280;13302;48.796;11.978;2023-11-22T00:47:19;97017.59;;;7.55;39.15
25350;BME280;13302;48.796;11.978;2023-11-22T00:50:06;97023.75;;;7.61;38.76
25350;BME280;13302;48.796;11.978;2023-11-22T00:52:54;97027.31;;;7.61;38.90
25350;BME280;13302;48.796;11.978;2023-11-22T00:55:42;97022.91;;;7.69;38.39
25350;BME280;13302;48.796;11.978;2023-11-22T00:58:29;97027.78;;;7.63;38.43
25350;BME280;13302;48.796;11.978;2023-11-22T01:01:17;97027.78;;;7.63;38.56
25350;BME280;13302;48.796;11.978;2023-11-22T01:04:05;97028.59;;;7.64;38.29
25350;BME280;13302;48.796;11.978;2023-11-22T01:06:54;97026.50;;;7.52;38.74
25350;BME280;13302;48.796;11.978;2023-11-22T01:09:41;97025.38;;;7.53;38.60
25350;BME280;13302;48.796;11.978;2023-11-22T01:12:28;97031.06;;;7.48;38.84
25350;BME280;13302;48.796;11.978;2023-11-22T01:15:15;97029.94;;;7.49;38.70
25350;BME280;13302;48.796;11.978;2023-11-22T01:18:02;97031.34;;;7.55;38.25
25350;BME280;13302;48.796;11.978;2023-11-22T01:20:50;97037.22;;;7.45;38.81
25350;BME280;13302;48.796;11.978;2023-11-22T01:23:37;97036.09;;;7.38;38.85
25350;BME280;13302;48.796;11.978;2023-11-22T01:26:24;97047.41;;;7.36;39.14
25350;BME280;13302;48.796;11.978;2023-11-22T01:29:11;97051.44;;;7.47;38.60
25350;BME280;13302;48.796;11.978;2023-11-22T01:31:59;97051.28;;;7.52;38.30
25350;BME280;13302;48.796;11.978;2023-11-22T01:34:46;97060.34;;;7.53;38.31
25350;BME280;13302;48.796;11.978;2023-11-22T01:37:33;97061.00;;;7.50;38.28
25350;BME280;13302;48.796;11.978;2023-11-22T01:40:20;97070.53;;;7.52;38.28
25350;BME280;13302;48.796;11.978;2023-11-22T01:43:07;97066.97;;;7.52;38.17
25350;BME280;13302;48.796;11.978;2023-11-22T01:45:56;97069.56;;;7.57;37.91
25350;BME280;13302;48.796;11.978;2023-11-22T01:48:43;97062.13;;;7.57;37.72
25350;BME280;13302;48.796;11.978;2023-11-22T01:51:30;97069.06;;;7.55;37.61
25350;BME280;13302;48.796;11.978;2023-11-22T01:54:18;97070.84;;;7.51;37.80
25350;BME280;13302;48.796;11.978;2023-11-22T01:57:06;97071.66;;;7.51;37.66
25350;BME280;13302;48.796;11.978;2023-11-22T01:59:56;97070.69;;;7.47;37.51
25350;BME280;13302;48.796;11.978;2023-11-22T02:02:43;97087.53;;;7.46;37.70
25350;BME280;13302;48.796;11.978;2023-11-22T02:05:30;97087.34;;;7.42;37.49
25350;BME280;13302;48.796;11.978;2023-11-22T02:08:17;97079.09;;;7.42;37.49
25350;BME280;13302;48.796;11.978;2023-11-22T02:11:05;97092.38;;;7.40;37.55
25350;BME280;13302;48.796;11.978;2023-11-22T02:13:53;97080.09;;;7.38;37.28
25350;BME280;13302;48.796;11.978;2023-11-22T02:16:41;97080.69;;;7.34;37.49
25350;BME280;13302;48.796;11.978;2023-11-22T02:19:28;97082.16;;;7.32;37.38
25350;BME280;13302;48.796;11.978;2023-11-22T02:22:17;97082.81;;;7.29;37.36
25350;BME280;13302;48.796;11.978;2023-11-22T02:25:04;97084.91;;;7.23;37.52
25350;BME280;13302;48.796;11.978;2023-11-22T02:27:51;97095.41;;;7.21;37.75
25350;BME280;13302;48.796;11.978;2023-11-22T02:30:39;97091.69;;;7.17;37.50
25350;BME280;13302;48.796;11.978;2023-11-22T02:33:26;97093.00;;;7.20;37.38
25350;BME280;13302;48.796;11.978;2023-11-22T02:36:13;97093.81;;;7.20;37.31
25350;BME280;13302;48.796;11.978;2023-11-22T02:39:00;97095.75;;;7.11;37.63
25350;BME280;13302;48.796;11.978;2023-11-22T02:41:47;97088.94;;;7.17;37.05
25350;BME280;13302;48.796;11.978;2023-11-22T02:44:35;97090.56;;;7.18;37.39
25350;BME280;13302;48.796;11.978;2023-11-22T02:47:22;97094.94;;;7.11;37.35
25350;BME280;13302;48.796;11.978;2023-11-22T02:50:09;97097.22;;;7.09;37.20
25350;BME280;13302;48.796;11.978;2023-11-22T02:52:56;97102.06;;;7.03;37.39
25350;BME280;13302;48.796;11.978;2023-11-22T02:55:43;97106.44;;;7.04;37.51
25350;BME280;13302;48.796;11.978;2023-11-22T02:58:31;97111.13;;;7.04;37.69
25350;BME280;13302;48.796;11.978;2023-11-22T03:01:19;97112.41;;;7.06;37.36
25350;BME280;13302;48.796;11.978;2023-11-22T03:04:06;97109.50;;;7.03;37.45
25350;BME280;13302;48.796;11.978;2023-11-22T03:06:53;97112.88;;;7.00;37.68
25350;BME280;13302;48.796;11.978;2023-11-22T03:09:41;97113.06;;;7.03;37.45
25350;BME280;13302;48.796;11.978;2023-11-22T03:12:39;97119.50;;;6.99;37.62
25350;BME280;13302;48.796;11.978;2023-11-22T03:15:26;97114.53;;;7.01;37.14
25350;BME280;13302;48.796;11.978;2023-11-22T03:18:13;97109.81;;;7.01;37.05
25350;BME280;13302;48.796;11.978;2023-11-22T03:21:00;97120.31;;;6.99;37.18
25350;BME280;13302;48.796;11.978;2023-11-22T03:23:48;97131.63;;;6.98;37.08
25350;BME280;13302;48.796;11.978;2023-11-22T03:26:36;97142.47;;;6.94;37.27
25350;BME280;13302;48.796;11.978;2023-11-22T03:29:25;97135.16;;;6.89;37.71
25350;BME280;13302;48.796;11.978;2023-11-22T03:32:12;97140.84;;;6.93;37.58
25350;BME280;13302;48.796;11.978;2023-11-22T03:34:59;97137.31;;;6.93;37.13
25350;BME280;13302;48.796;11.978;2023-11-22T03:37:46;97146.19;;;6.98;37.03
25350;BME280;13302;48.796;11.978;2023-11-22T03:40:33;97149.41;;;6.91;37.30
25350;BME280;13302;48.796;11.978;2023-11-22T03:43:22;97172.69;;;6.94;37.09
25350;BME280;13302;48.796;11.978;2023-11-22T03:46:12;97167.69;;;6.96;36.95
25350;BME280;13302;48.796;11.978;2023-11-22T03:49:00;97171.06;;;6.93;36.93
25350;BME280;13302;48.796;11.978;2023-11-22T03:51:47;97164.94;;;6.87;37.18
25350;BME280;13302;48.796;11.978;2023-11-22T03:54:34;97172.03;;;6.88;37.09
25350;BME280;13302;48.796;11.978;2023-11-22T03:57:22;97167.81;;;6.82;37.33
25350;BME280;13302;48.796;11.978;2023-11-22T04:00:09;97170.44;;;6.87;37.25
25350;BME280;13302;48.796;11.978;2023-11-22T04:02:59;97156.66;;;6.79;37.29
25350;BME280;13302;48.796;11.978;2023-11-22T04:05:49;97179.63;;;6.83;37.20
25350;BME280;13302;48.796;11.978;2023-11-22T04:08:36;97178.50;;;6.84;37.34
25350;BME280;13302;48.796;11.978;2023-11-22T04:11:24;97181.72;;;6.86;37.25
25350;BME280;13302;48.796;11.978;2023-11-22T04:14:11;97187.38;;;6.89;37.29
25350;BME280;13302;48.796;11.978;2023-11-22T04:16:59;97191.59;;;6.87;37.27
25350;BME280;13302;48.796;11.978;2023-11-22T04:19:46;97192.69;;;6.77;37.49
25350;BME280;13302;48.796;11.978;2023-11-22T04:22:34;97190.09;;;6.81;37.32
25350;BME280;13302;48.796;11.978;2023-11-22T04:25:21;97201.91;;;6.81;37.14
25350;BME280;13302;48.796;11.978;2023-11-22T04:28:08;97209.84;;;6.83;37.00
25350;BME280;13302;48.796;11.978;2023-11-22T04:30:59;97208.22;;;6.82;37.18
25350;BME280;13302;48.796;11.978;2023-11-22T04:33:46;97224.22;;;6.80;37.37
25350;BME280;13302;48.796;11.978;2023-11-22T04:36:33;97222.09;;;6.77;37.31
25350;BME280;13302;48.796;11.978;2023-11-22T04:39:20;97223.91;;;6.81;37.09
25350;BME280;13302;48.796;11.978;2023-11-22T04:42:07;97228.75;;;6.84;36.79
25350;BME280;13302;48.796;11.978;2023-11-22T04:44:55;97225.00;;;6.72;37.23
25350;BME280;13302;48.796;11.978;2023-11-22T04:47:42;97227.94;;;6.75;37.37
25350;BME280;13302;48.796;11.978;2023-11-22T04:50:29;97227.28;;;6.78;36.97
25350;BME280;13302;48.796;11.978;2023-11-22T04:53:16;97229.22;;;6.78;37.22
25350;BME280;13302;48.796;11.978;2023-11-22T04:56:04;97237.47;;;6.78;37.05
25350;BME280;13302;48.796;11.978;2023-11-22T04:58:52;97247.19;;;6.84;36.87
25350;BME280;13302;48.796;11.978;2023-11-22T05:01:39;97241.50;;;6.80;36.72
25350;BME280;13302;48.796;11.978;2023-11-22T05:04:27;97255.56;;;6.79;36.45
25350;BME280;13302;48.796;11.978;2023-11-22T05:07:14;97271.88;;;6.75;36.74
25350;BME280;13302;48.796;11.978;2023-11-22T05:10:03;97279.63;;;6.73;36.55
25350;BME280;13302;48.796;11.978;2023-11-22T05:12:50;97283.66;;;6.67;37.05
25350;BME280;13302;48.796;11.978;2023-11-22T05:15:37;97283.47;;;6.64;37.21
25350;BME280;13302;48.796;11.978;2023-11-22T05:18:25;97285.75;;;6.70;36.72
25350;BME280;13302;48.796;11.978;2023-11-22T05:21:12;97281.72;;;6.68;36.87
25350;BME280;13302;48.796;11.978;2023-11-22T05:23:59;97278.47;;;6.66;36.93
25350;BME280;13302;48.796;11.978;2023-11-22T05:26:46;97285.59;;;6.67;36.82
25350;BME280;13302;48.796;11.978;2023-11-22T05:29:33;97289.28;;;6.62;37.18
25350;BME280;13302;48.796;11.978;2023-11-22T05:32:32;97287.00;;;6.64;36.70
25350;BME280;13302;48.796;11.978;2023-11-22T05:35:20;97290.75;;;6.68;36.50
25350;BME280;13302;48.796;11.978;2023-11-22T05:38:07;97303.50;;;6.64;36.72
25350;BME280;13302;48.796;11.978;2023-11-22T05:40:55;97314.00;;;6.62;36.56
25350;BME280;13302;48.796;11.978;2023-11-22T05:43:42;97302.94;;;6.54;36.82
25350;BME280;13302;48.796;11.978;2023-11-22T05:46:29;97302.78;;;6.50;37.10
25350;BME280;13302;48.796;11.978;2023-11-22T05:49:16;97313.13;;;6.53;37.08
25350;BME280;13302;48.796;11.978;2023-11-22T05:52:04;97309.38;;;6.49;36.80
25350;BME280;13302;48.796;11.978;2023-11-22T05:54:51;97311.69;;;6.56;36.45
25350;BME280;13302;48.796;11.978;2023-11-22T05:57:40;97321.06;;;6.55;36.51
25350;BME280;13302;48.796;11.978;2023-11-22T06:00:28;97325.88;;;6.49;36.77
25350;BME280;13302;48.796;11.978;2023-11-22T06:03:15;97327.31;;;6.47;36.77
25350;BME280;13302;48.796;11.978;2023-11-22T06:06:02;97325.38;;;6.47;36.54
25350;BME280;13302;48.796;11.978;2023-11-22T06:08:50;97334.63;;;6.51;36.44
25350;BME280;13302;48.796;11.978;2023-11-22T06:11:37;97332.97;;;6.50;36.37
25350;BME280;13302;48.796;11.978;2023-11-22T06:14:24;97326.38;;;6.51;36.13
25350;BME280;13302;48.796;11.978;2023-11-22T06:17:11;97328.25;;;6.42;36.51
25350;BME280;13302;48.796;11.978;2023-11-22T06:19:59;97324.81;;;6.36;36.70
25350;BME280;13302;48.796;11.978;2023-11-22T06:22:46;97329.38;;;6.41;36.64
25350;BME280;13302;48.796;11.978;2023-11-22T06:25:34;97327.13;;;6.43;36.56
25350;BME280;13302;48.796;11.978;2023-11-22T06:28:24;97333.63;;;6.47;36.09
25350;BME280;13302;48.796;11.978;2023-11-22T06:31:11;97336.16;;;6.43;36.09
25350;BME280;13302;48.796;11.978;2023-11-22T06:33:58;97338.41;;;6.41;35.98
25350;BME280;13302;48.796;11.978;2023-11-22T06:36:46;97351.44;;;6.36;36.31
25350;BME280;13302;48.796;11.978;2023-11-22T06:39:34;97350.16;;;6.33;36.66
25350;BME280;13302;48.796;11.978;2023-11-22T06:42:22;97360.84;;;6.35;36.48
25350;BME280;13302;48.796;11.978;2023-11-22T06:45:09;97367.09;;;6.35;36.39
25350;BME280;13302;48.796;11.978;2023-11-22T06:48:03;97380.97;;;6.30;36.08
25350;BME280;13302;48.796;11.978;2023-11-22T06:50:50;97380.16;;;6.30;36.09
25350;BME280;13302;48.796;11.978;2023-11-22T06:53:38;97382.59;;;6.31;35.81
25350;BME280;13302;48.796;11.978;2023-11-22T06:56:25;97388.69;;;6.28;36.10
25350;BME280;13302;48.796;11.978;2023-11-22T06:59:13;97390.38;;;6.16;36.57
25350;BME280;13302;48.796;11.978;2023-11-22T07:02:00;97388.25;;;6.13;36.67
25350;BME280;13302;48.796;11.978;2023-11-22T07:04:47;97400.13;;;6.22;36.42
25350;BME280;13302;48.796;11.978;2023-11-22T07:07:38;97400.72;;;6.19;36.51
25350;BME280;13302;48.796;11.978;2023-11-22T07:10:25;97412.31;;;6.16;36.69
25350;BME280;13302;48.796;11.978;2023-11-22T07:13:13;97420.47;;;6.21;36.61
25350;BME280;13302;48.796;11.978;2023-11-22T07:16:00;97430.00;;;6.23;36.61
25350;BME280;13302;48.796;11.978;2023-11-22T07:18:47;97441.19;;;6.27;36.40
25350;BME280;13302;48.796;11.978;2023-11-22T07:21:34;97443.94;;;6.27;36.61
25350;BME280;13302;48.796;11.978;2023-11-22T07:24:24;97450.13;;;6.19;36.70
25350;BME280;13302;48.796;11.978;2023-11-22T07:27:12;97451.66;;;6.25;36.65
25350;BME280;13302;48.796;11.978;2023-11-22T07:29:59;97454.72;;;6.23;36.46
25350;BME280;13302;48.796;11.978;2023-11-22T07:32:46;97452.28;;;6.22;36.60
25350;BME280;13302;48.796;11.978;2023-11-22T07:35:33;97450.22;;;6.27;36.58
25350;BME280;13302;48.796;11.978;2023-11-22T07:38:20;97454.41;;;6.25;36.52
25350;BME280;13302;48.796;11.978;2023-11-22T07:41:07;97454.03;;;6.18;36.54
25350;BME280;13302;48.796;11.978;2023-11-22T07:43:54;97468.25;;;6.20;36.70
25350;BME280;13302;48.796;11.978;2023-11-22T07:46:42;97473.72;;;6.20;36.85
25350;BME280;13302;48.796;11.978;2023-11-22T07:49:30;97483.06;;;6.19;36.71
25350;BME280;13302;48.796;11.978;2023-11-22T07:52:17;97487.78;;;6.18;36.74
25350;BME280;13302;48.796;11.978;2023-11-22T07:55:05;97494.69;;;6.16;36.64
25350;BME280;13302;48.796;11.978;2023-11-22T07:57:55;97498.06;;;6.13;36.92
25350;BME280;13302;48.796;11.978;2023-11-22T08:00:42;97506.88;;;6.10;37.25
25350;BME280;13302;48.796;11.978;2023-11-22T08:03:30;97511.03;;;6.07;37.09
25350;BME280;13302;48.796;11.978;2023-11-22T08:06:17;97506.88;;;6.10;37.13
25350;BME280;13302;48.796;11.978;2023-11-22T08:09:04;97504.72;;;6.07;37.16
25350;BME280;13302;48.796;11.978;2023-11-22T08:11:52;97505.13;;;6.00;37.64
25350;BME280;13302;48.796;11.978;2023-11-22T08:14:39;97502.59;;;6.04;37.50
25350;BME280;13302;48.796;11.978;2023-11-22T08:17:27;97511.94;;;6.02;37.32
25350;BME280;13302;48.796;11.978;2023-11-22T08:20:14;97507.91;;;6.14;37.30
25350;BME280;13302;48.796;11.978;2023-11-22T08:23:05;97516.66;;;6.16;36.92
25350;BME280;13302;48.796;11.978;2023-11-22T08:25:53;97522.66;;;6.18;36.83
25350;BME280;13302;48.796;11.978;2023-11-22T08:28:41;97532.28;;;6.15;36.90
25350;BME280;13302;48.796;11.978;2023-11-22T08:31:28;97525.50;;;6.13;37.01
25350;BME280;13302;48.796;11.978;2023-11-22T08:34:15;97524.38;;;6.14;37.01
25350;BME280;13302;48.796;11.978;2023-11-22T08:37:03;97520.81;;;6.13;37.06
25350;BME280;13302;48.796;11.978;2023-11-22T08:39:50;97524.19;;;6.10;37.22
25350;BME280;13302;48.796;11.978;2023-11-22T08:42:37;97523.34;;;6.10;37.06
25350;BME280;13302;48.796;11.978;2023-11-22T08:45:24;97520.88;;;6.08;37.11
25350;BME280;13302;48.796;11.978;2023-11-22T08:48:11;97537.91;;;6.10;37.14
25350;BME280;13302;48.796;11.978;2023-11-22T08:51:01;97551.38;;;6.07;37.33
25350;BME280;13302;48.796;11.978;2023-11-22T08:53:50;97569.19;;;6.09;36.95
25350;BME280;13302;48.796;11.978;2023-11-22T08:56:38;97567.56;;;6.08;37.21
25350;BME280;13302;48.796;11.978;2023-11-22T08:59:26;97571.34;;;6.12;37.09
25350;BME280;13302;48.796;11.978;2023-11-22T09:02:14;97579.88;;;6.11;37.35
25350;BME280;13302;48.796;11.978;2023-11-22T09:05:05;97583.06;;;6.18;36.88
25350;BME280;13302;48.796;11.978;2023-11-22T09:07:56;97593.22;;;6.17;36.70
25350;BME280;13302;48.796;11.978;2023-11-22T09:10:52;97592.41;;;6.17;36.70
25350;BME280;13302;48.796;11.978;2023-11-22T09:13:39;97594.13;;;6.13;36.75
25350;BME280;13302;48.796;11.978;2023-11-22T09:16:26;97604.00;;;6.14;36.46
25350;BME280;13302;48.796;11.978;2023-11-22T09:19:14;97610.06;;;6.11;37.02
25350;BME280;13302;48.796;11.978;2023-11-22T09:22:01;97616.09;;;6.13;36.67
25350;BME280;13302;48.796;11.978;2023-11-22T09:24:48;97616.38;;;6.11;36.65
25350;BME280;13302;48.796;11.978;2023-11-22T09:27:35;97608.22;;;6.06;36.74
25350;BME280;13302;48.796;11.978;2023-11-22T09:30:28;97610.97;;;6.06;37.08
25350;BME280;13302;48.796;11.978;2023-11-22T09:33:22;97623.28;;;6.09;37.02
25350;BME280;13302;48.796;11.978;2023-11-22T09:36:10;97605.09;;;6.13;36.78
25350;BME280;13302;48.796;11.978;2023-11-22T09:38:58;97607.22;;;6.16;36.62
25350;BME280;13302;48.796;11.978;2023-11-22T09:41:45;97607.22;;;6.16;36.66
25350;BME280;13302;48.796;11.978;2023-11-22T09:44:32;97612.03;;;6.10;36.58
25350;BME280;13302;48.796;11.978;2023-11-22T09:47:19;97620.31;;;6.05;36.91
25350;BME280;13302;48.796;11.978;2023-11-22T09:50:08;97620.47;;;6.14;36.73
25350;BME280;13302;48.796;11.978;2023-11-22T09:53:00;97609.50;;;6.14;36.58
25350;BME280;13302;48.796;11.978;2023-11-22T09:55:47;97620.16;;;6.15;36.55
25350;BME280;13302;48.796;11.978;2023-11-22T09:58:35;97618.06;;;6.07;36.81
25350;BME280;13302;48.796;11.978;2023-11-22T10:01:23;97618.97;;;6.02;36.97
25350;BME280;13302;48.796;11.978;2023-11-22T10:04:10;97610.38;;;6.09;36.87
25350;BME280;13302;48.796;11.978;2023-11-22T10:06:58;97619.66;;;6.13;36.84
25350;BME280;13302;48.796;11.978;2023-11-22T10:09:45;97608.88;;;6.17;36.57
25350;BME280;13302;48.796;11.978;2023-11-22T10:12:33;97621.38;;;6.23;36.38
25350;BME280;13302;48.796;11.978;2023-11-22T10:15:27;97611.41;;;6.13;36.73
25350;BME280;13302;48.796;11.978;2023-11-22T10:18:14;97613.75;;;6.20;36.58
25350;BME280;13302;48.796;11.978;2023-11-22T10:21:02;97603.66;;;6.15;36.41
25350;BME280;13302;48.796;11.978;2023-11-22T10:23:52;97606.63;;;6.19;36.41
25350;BME280;13302;48.796;11.978;2023-11-22T10:26:40;97601.53;;;6.12;36.83
25350;BME280;13302;48.796;11.978;2023-11-22T10:29:28;97611.63;;;6.17;36.27
25350;BME280;13302;48.796;11.978;2023-11-22T10:32:16;97619.03;;;6.16;36.50
25350;BME280;13302;48.796;11.978;2023-11-22T10:35:05;97615.28;;;6.12;36.61
25350;BME280;13302;48.796;11.978;2023-11-22T10:37:53;97627.88;;;6.13;36.66
25350;BME280;13302;48.796;11.978;2023-11-22T10:40:40;97620.97;;;6.16;36.63
25350;BME280;13302;48.796;11.978;2023-11-22T10:43:30;97639.34;;;6.15;36.53
25350;BME280;13302;48.796;11.978;2023-11-22T10:46:19;97635.50;;;6.16;36.37
25350;BME280;13302;48.796;11.978;2023-11-22T10:49:09;97642.72;;;6.12;36.50
25350;BME280;13302;48.796;11.978;2023-11-22T10:52:00;97647.31;;;6.17;36.23
25350;BME280;13302;48.796;11.978;2023-11-22T10:54:50;97643.25;;;6.14;36.26
25350;BME280;13302;48.796;11.978;2023-11-22T10:57:45;97639.47;;;6.10;36.57
25350;BME280;13302;48.796;11.978;2023-11-22T11:00:40;97639.22;;;6.07;36.60
25350;BME280;13302;48.796;11.978;2023-11-22T11:03:29;97652.44;;;6.05;36.85
25350;BME280;13302;48.796;11.978;2023-11-22T11:06:20;97655.81;;;6.02;36.86
25350;BME280;13302;48.796;11.978;2023-11-22T11:09:14;97663.34;;;6.10;36.89
25350;BME280;13302;48.796;11.978;2023-11-22T11:12:02;97657.84;;;6.10;36.76
25350;BME280;13302;48.796;11.978;2023-11-22T11:14:55;97659.25;;;6.07;37.03
25350;BME280;13302;48.796;11.978;2023-11-22T11:17:43;97644.97;;;6.10;36.57
25350;BME280;13302;48.796;11.978;2023-11-22T11:20:49;97649.59;;;6.10;36.72
25350;BME280;13302;48.796;11.978;2023-11-22T11:23:39;97646.03;;;6.09;36.69
25350;BME280;13302;48.796;11.978;2023-11-22T11:26:34;97642.22;;;6.10;36.55
25350;BME280;13302;48.796;11.978;2023-11-22T11:32:31;97637.44;;;6.16;36.42
25350;BME280;13302;48.796;11.978;2023-11-22T11:35:37;97632.56;;;6.13;36.58
25350;BME280;13302;48.796;11.978;2023-11-22T11:38:31;97640.25;;;6.11;36.53
25350;BME280;13302;48.796;11.978;2023-11-22T11:41:25;97642.72;;;6.12;36.59
25350;BME280;13302;48.796;11.978;2023-11-22T11:44:13;97648.13;;;6.17;36.22
25350;BME280;13302;48.796;11.978;2023-11-22T11:47:09;97651.97;;;6.16;36.15
25350;BME280;13302;48.796;11.978;2023-11-22T11:49:57;97649.84;;;6.13;36.36
25350;BME280;13302;48.796;11.978;2023-11-22T11:52:44;97664.88;;;6.16;36.24
25350;BME280;13302;48.796;11.978;2023-11-22T11:55:31;97674.03;;;6.11;36.34
25350;BME280;13302;48.796;11.978;2023-11-22T11:58:19;97668.63;;;6.06;36.55
25350;BME280;13302;48.796;11.978;2023-11-22T12:01:06;97675.88;;;6.16;36.17
25350;BME280;13302;48.796;11.978;2023-11-22T12:03:54;97689.09;;;6.14;36.47
25350;BME280;13302;48.796;11.978;2023-11-22T12:06:41;97700.66;;;6.11;36.53
25350;BME280;13302;48.796;11.978;2023-11-22T12:09:28;97700.38;;;6.12;36.32
25350;BME280;13302;48.796;11.978;2023-11-22T12:12:18;97712.66;;;6.15;36.31
25350;BME280;13302;48.796;11.978;2023-11-22T12:15:05;97715.94;;;6.17;36.34
25350;BME280;13302;48.796;11.978;2023-11-22T12:17:56;97714.50;;;6.19;36.17
25350;BME280;13302;48.796;11.978;2023-11-22T12:20:59;97710.53;;;6.12;36.16
25350;BME280;13302;48.796;11.978;2023-11-22T12:23:47;97700.06;;;6.14;36.35
25350;BME280;13302;48.796;11.978;2023-11-22T12:26:39;97707.50;;;6.13;35.98
25350;BME280;13302;48.796;11.978;2023-11-22T12:29:28;97702.81;;;6.14;36.11
25350;BME280;13302;48.796;11.978;2023-11-22T12:32:15;97699.25;;;6.13;36.38
25350;BME280;13302;48.796;11.978;2023-11-22T12:35:05;97692.03;;;6.17;35.97
25350;BME280;13302;48.796;11.978;2023-11-22T12:37:54;97693.38;;;6.20;35.86
25350;BME280;13302;48.796;11.978;2023-11-22T12:40:47;97696.09;;;6.20;35.68
25350;BME280;13302;48.796;11.978;2023-11-22T12:43:35;97714.50;;;6.19;35.79
25350;BME280;13302;48.796;11.978;2023-11-22T12:46:54;97723.56;;;6.20;35.49
25350;BME280;13302;48.796;11.978;2023-11-22T12:49:47;97717.38;;;6.14;35.81
25350;BME280;13302;48.796;11.978;2023-11-22T12:52:34;97707.84;;;6.07;36.14
25350;BME280;13302;48.796;11.978;2023-11-22T12:55:21;97725.81;;;6.18;35.57
25350;BME280;13302;48.796;11.978;2023-11-22T12:58:08;97719.50;;;6.17;35.44
25350;BME280;13302;48.796;11.978;2023-11-22T13:00:55;97717.88;;;6.16;35.51
25350;BME280;13302;48.796;11.978;2023-11-22T13:03:47;97713.69;;;6.19;35.22
25350;BME280;13302;48.796;11.978;2023-11-22T13:06:37;97709.63;;;6.16;35.10
25350;BME280;13302;48.796;11.978;2023-11-22T13:09:24;97706.38;;;6.14;35.15
25350;BME280;13302;48.796;11.978;2023-11-22T13:12:11;97708.59;;;6.12;35.22
25350;BME280;13302;48.796;11.978;2023-11-22T13:14:58;97694.59;;;6.14;35.13
25350;BME280;13302;48.796;11.978;2023-11-22T13:17:46;97694.59;;;6.14;35.16
25350;BME280;13302;48.796;11.978;2023-11-22T13:20:33;97701.22;;;6.08;35.15
25350;BME280;13302;48.796;11.978;2023-11-22T13:23:20;97701.84;;;6.05;35.43
25350;BME280;13302;48.796;11.978;2023-11-22T13:26:07;97706.06;;;6.16;35.00
25350;BME280;13302;48.796;11.978;2023-11-22T13:29:00;97710.44;;;6.17;34.93
25350;BME280;13302;48.796;11.978;2023-11-22T13:31:47;97700.28;;;6.17;35.06
25350;BME280;13302;48.796;11.978;2023-11-22T13:34:34;97705.84;;;6.12;35.05
25350;BME280;13302;48.796;11.978;2023-11-22T13:37:25;97704.88;;;6.03;35.39
25350;BME280;13302;48.796;11.978;2023-11-22T13:40:16;97713.13;;;6.03;35.16
25350;BME280;13302;48.796;11.978;2023-11-22T13:43:03;97712.81;;;6.05;35.32
25350;BME280;13302;48.796;11.978;2023-11-22T13:45:51;97715.56;;;6.05;35.18
25350;BME280;13302;48.796;11.978;2023-11-22T13:48:38;97719.94;;;6.06;35.36
25350;BME280;13302;48.796;11.978;2023-11-22T13:51:25;97722.09;;;6.09;35.10
25350;BME280;13302;48.796;11.978;2023-11-22T13:54:12;97709.78;;;6.06;35.02
25350;BME280;13302;48.796;11.978;2023-11-22T13:57:01;97718.31;;;6.05;35.15
25350;BME280;13302;48.796;11.978;2023-11-22T13:59:48;97717.00;;;6.02;35.12
25350;BME280;13302;48.796;11.978;2023-11-22T14:02:35;97716.69;;;6.04;35.02
25350;BME280;13302;48.796;11.978;2023-11-22T14:05:27;97722.69;;;6.06;35.18
25350;BME280;13302;48.796;11.978;2023-11-22T14:08:14;97716.38;;;6.05;35.02
25350;BME280;13302;48.796;11.978;2023-11-22T14:11:04;97715.56;;;6.05;35.19
25350;BME280;13302;48.796;11.978;2023-11-22T14:13:51;97712.81;;;6.05;35.24
25350;BME280;13302;48.796;11.978;2023-11-22T14:16:38;97716.38;;;6.05;34.98
25350;BME280;13302;48.796;11.978;2023-11-22T14:19:28;97719.50;;;5.98;35.34
25350;BME280;13302;48.796;11.978;2023-11-22T14:22:15;97731.81;;;6.01;35.33
25350;BME280;13302;48.796;11.978;2023-11-22T14:25:02;97729.28;;;6.05;34.91
25350;BME280;13302;48.796;11.978;2023-11-22T14:27:49;97728.25;;;6.00;35.18
25350;BME280;13302;48.796;11.978;2023-11-22T14:30:40;97731.50;;;6.02;35.04
25350;BME280;13302;48.796;11.978;2023-11-22T14:33:28;97734.56;;;6.01;34.92
25350;BME280;13302;48.796;11.978;2023-11-22T14:36:18;97740.34;;;5.99;35.19
25350;BME280;13302;48.796;11.978;2023-11-22T14:39:05;97736.56;;;5.95;35.26
25350;BME280;13302;48.796;11.978;2023-11-22T14:41:54;97749.19;;;5.96;35.09
25350;BME280;13302;48.796;11.978;2023-11-22T14:44:42;97759.56;;;5.99;35.14
25350;BME280;13302;48.796;11.978;2023-11-22T14:47:29;97767.72;;;6.05;35.11
25350;BME280;13302;48.796;11.978;2023-11-22T14:50:22;97771.06;;;6.02;34.97
25350;BME280;13302;48.796;11.978;2023-11-22T14:53:12;97785.69;;;5.97;34.98
25350;BME280;13302;48.796;11.978;2023-11-22T14:55:59;97798.31;;;5.98;35.26